Time;durP1;ratioP1;P1;durP2;ratioP2;P2;SDS_P1;SDS_P2;PMS_P1;PMS_P2;Temp;Humidity;BMP_temperature;BMP_pressure;BME280_temperature;BME280_humidity;BME280_pressure;Samples;Min_cycle;Max_cycle;Signal;HPM_P1;HPM_P2
2021/04/21 07:12:25;;;;;;;34.70;25.85;;;;;;;12.01;78.78;99597.31;4554662;27;20099;-96
2021/04/21 07:19:25;;;;;;;34.55;23.73;;;;;;;13.73;65.76;99597.03;1203414;27;20237;-96
2021/04/21 07:26:22;;;;;;;32.55;24.33;;;;;;;13.81;64.13;99606.84;4356899;32;20175;-96
2021/04/21 07:29:48;;;;;;;32.65;24.87;;;;;;;14.09;63.90;99610.09;4456316;27;32858;31
2021/04/21 07:33:37;;;;;;;34.92;27.08;;;;;;;14.25;62.72;99611.53;4588078;27;34014;-96
2021/04/21 07:36:54;;;;;;;30.45;25.65;;;;;;;14.37;65.42;99613.56;4372889;28;30976;-96
2021/04/21 07:40:30;;;;;;;33.83;25.45;;;;;;;15.10;62.63;99623.25;4730305;27;32214;-96
2021/04/21 07:44:02;;;;;;;30.02;23.60;;;;;;;15.10;60.19;99626.78;4373355;27;34799;-96
2021/04/21 07:47:32;;;;;;;30.23;22.73;;;;;;;15.27;57.21;99629.84;4411567;27;20120;-96
2021/04/21 07:50:54;;;;;;;30.17;23.50;;;;;;;15.10;57.88;99634.13;4297120;33;33242;-93
2021/04/21 07:54:01;;;;;;;32.30;22.37;;;;;;;15.22;59.25;99636.97;4277090;33;34524;-94
2021/04/21 07:57:34;;;;;;;;;;;;;;;;;;;;;
2021/04/21 08:04:31;;;;;;;25.30;18.80;;;;;;;15.88;56.46;99641.91;4350374;28;20223;-90
2021/04/21 08:07:40;;;;;;;30.17;20.20;;;;;;;16.30;52.61;99646.72;4236976;33;33538;-90
2021/04/21 08:11:04;;;;;;;24.20;17.35;;;;;;;16.01;57.13;99649.09;4191495;34;20126;-94
2021/04/21 08:13:51;;;;;;;23.87;17.17;;;;;;;16.42;51.61;99652.22;4197376;34;34780;-91
2021/04/21 08:17:04;;;;;;;22.25;16.27;;;;;;;16.37;52.62;99652.09;4201197;34;34367;-94
2021/04/21 08:20:01;;;;;;;26.42;16.77;;;;;;;16.19;53.18;99647.47;4220853;33;33175;-91
2021/04/21 08:23:20;;;;;;;23.12;17.48;;;;;;;16.39;51.19;99653.53;4231404;33;33529;-96
2021/04/21 08:40:26;;;;;;;19.95;15.93;;;;;;;17.83;46.66;99651.03;4272018;33;33902;-95
2021/04/21 08:44:24;;;;;;;;;;;;;;;17.96;49.63;99655.47;4338873;27;20090;31
2021/04/21 08:47:05;;;;;;;21.60;15.80;;;;;;;18.10;48.66;99645.94;4282009;33;33760;-96
2021/04/21 08:50:17;;;;;;;22.80;18.02;;;;;;;17.53;47.08;99656.59;4169193;31;20811;-95
2021/04/21 08:53:29;;;;;;;19.23;15.98;;;;;;;17.51;48.87;99653.25;4299508;33;34513;-95
2021/04/21 08:56:10;;;;;;;19.83;15.55;;;;;;;17.20;47.16;99647.00;4297834;33;33987;-88
2021/04/21 08:59:09;;;;;;;20.90;16.65;;;;;;;16.99;47.70;99642.91;4293605;33;34101;-96
2021/04/21 09:01:55;;;;;;;20.00;15.35;;;;;;;16.96;50.26;99651.56;4305240;33;34237;-96
2021/04/21 09:08:52;;;;;;;23.10;15.52;;;;;;;18.07;48.97;99637.38;4289726;33;32842;-96
2021/04/21 09:12:50;;;;;;;19.92;14.98;;;;;;;18.13;47.32;99631.78;4350950;27;34190;-96
2021/04/21 09:18:50;;;;;;;19.52;15.32;;;;;;;18.87;41.49;99628.37;4299551;33;34432;-95
2021/04/21 09:22:14;;;;;;;16.65;11.50;;;;;;;18.88;43.31;99631.97;4534716;27;33671;-92
2021/04/21 09:25:42;;;;;;;18.42;15.18;;;;;;;19.61;45.00;99625.81;4298484;33;33085;-96
2021/04/21 09:29:05;;;;;;;18.12;14.65;;;;;;;19.45;42.72;99627.50;4310200;28;20103;-93
2021/04/21 09:32:11;;;;;;;20.92;14.48;;;;;;;19.39;41.32;99632.88;4269812;33;34701;-93
2021/04/21 09:35:36;;;;;;;18.55;13.45;;;;;;;18.90;40.43;99629.00;4292312;27;33972;-92
2021/04/21 09:42:27;;;;;;;19.23;15.43;;;;;;;19.05;42.96;99626.53;4241888;33;33116;-96
2021/04/21 09:45:44;;;;;;;25.35;15.02;;;;;;;19.80;39.57;99627.25;4261304;33;32808;-93
2021/04/21 09:48:22;;;;;;;18.73;15.55;;;;;;;19.96;40.36;99635.72;4294591;27;32571;-94
2021/04/21 09:51:42;;;;;;;22.80;16.05;;;;;;;19.93;40.03;99626.91;4298207;33;33222;-96
2021/04/21 09:54:41;;;;;;;19.65;15.48;;;;;;;20.28;42.31;99625.75;4306487;33;32665;-96
2021/04/21 09:57:45;;;;;;;19.48;14.95;;;;;;;20.78;37.46;99614.84;4305090;33;35868;-89
2021/04/21 10:00:25;;;;;;;19.30;15.27;;;;;;;21.17;39.57;99623.75;4284666;33;35825;-93
2021/04/21 10:03:32;;;;;;;17.08;14.10;;;;;;;20.49;37.88;99628.72;4276398;27;33260;-96
2021/04/21 10:06:31;;;;;;;16.87;12.48;;;;;;;20.51;42.02;99623.84;4241639;33;34700;-96
2021/04/21 10:09:29;;;;;;;16.87;12.88;;;;;;;21.02;37.87;99620.00;4487030;27;33554;-96
2021/04/21 10:12:58;;;;;;;16.35;12.85;;;;;;;21.11;33.81;99618.47;4446943;27;30682;-96
2021/04/21 10:15:54;;;;;;;17.73;12.70;;;;;;;20.84;35.00;99616.53;4226746;33;33560;-96
2021/04/21 10:41:07;;;;;;;15.20;10.60;;;;;;;23.71;28.30;99599.78;4261430;33;31630;-96
2021/04/21 10:47:53;;;;;;;14.63;11.00;;;;;;;23.15;31.07;99597.87;4215090;33;33303;-89
2021/04/21 10:50:51;;;;;;;12.90;10.13;;;;;;;22.51;29.10;99604.56;4243514;33;33579;-96
2021/04/21 10:54:48;;;;;;;10.27;8.27;;;;;;;21.81;29.82;99605.59;4215595;33;33809;-96
2021/04/21 10:58:08;;;;;;;11.18;7.95;;;;;;;21.64;30.98;99602.97;4258691;28;33888;31
2021/04/21 11:06:24;;;;;;;9.10;7.47;;;;;;;22.04;30.99;99587.81;4243794;33;31764;-96
2021/04/21 11:09:32;;;;;;;10.35;7.40;;;;;;;22.48;28.42;99581.16;4234565;33;35039;-95
2021/04/21 11:12:49;;;;;;;10.43;7.95;;;;;;;24.00;30.58;99588.16;4242123;33;33299;-92
2021/04/21 11:19:48;;;;;;;10.30;7.53;;;;;;;24.42;26.83;99580.56;4219202;33;33079;-94
2021/04/21 11:26:28;;;;;;;10.68;7.00;;;;;;;26.38;25.24;99560.41;4540275;28;32306;-93
2021/04/21 11:29:22;;;;;;;6.97;5.07;;;;;;;26.41;24.25;99568.09;4304697;33;33980;-95
2021/04/21 11:31:55;;;;;;;9.73;7.12;;;;;;;23.99;23.55;99569.13;4303066;33;33679;-88
2021/04/21 11:34:37;;;;;;;10.55;7.47;;;;;;;23.80;27.25;99569.69;4294414;33;35060;-91
2021/04/21 11:37:27;;;;;;;11.35;6.28;;;;;;;22.49;28.31;99569.06;4295387;33;34639;-92
2021/04/21 11:40:48;;;;;;;;;;;;;;;;;;;;;
2021/04/21 11:43:43;;;;;;;13.23;6.87;;;;;;;22.12;31.36;99560.91;4260974;33;34136;-91
2021/04/21 11:46:55;;;;;;;9.45;7.28;;;;;;;22.53;28.43;99555.56;4254712;33;33262;-88
2021/04/21 11:50:11;;;;;;;10.10;7.55;;;;;;;21.02;30.04;99568.66;4263769;33;34800;-96
2021/04/21 11:53:17;;;;;;;7.25;5.78;;;;;;;20.63;30.81;99561.38;4255278;33;35090;-88
2021/04/21 11:56:17;;;;;;;8.63;7.50;;;;;;;20.91;30.78;99556.75;4270979;33;35118;-91
2021/04/21 11:59:29;;;;;;;15.57;8.38;;;;;;;20.81;35.25;99557.47;4294925;33;32635;-96
2021/04/21 12:02:43;;;;;;;8.52;6.43;;;;;;;20.43;34.54;99556.50;4273534;33;32973;-96
2021/04/21 12:24:19;;;;;;;6.70;4.73;;;;;;;23.84;28.69;99547.91;5047594;27;20080;31
2021/04/21 12:38:24;;;;;;;7.55;5.47;;;;;;;25.72;25.06;99529.59;4575508;27;20244;-94
2021/04/21 13:07:25;;;;;;;8.80;7.60;;;;;;;26.40;22.19;99509.09;4739295;28;20053;-95
2021/04/21 13:10:37;;;;;;;11.00;7.17;;;;;;;25.63;23.25;99507.25;4391518;28;33514;31
2021/04/21 13:14:26;;;;;;;9.63;7.57;;;;;;;23.92;25.50;99505.94;4462051;28;20119;-96
2021/04/21 13:25:55;;;;;;;7.35;6.60;;;;;;;20.39;32.67;99514.19;4642137;28;20149;-96
2021/04/21 13:33:12;;;;;;;9.95;6.45;;;;;;;21.58;29.64;99513.31;4076357;28;20067;-91
2021/04/21 13:36:10;;;;;;;7.90;4.40;;;;;;;19.91;33.58;99534.97;4151345;34;32785;-94
2021/04/21 13:38:51;;;;;;;4.75;3.70;;;;;;;18.69;36.77;99544.53;4152604;34;33505;-93
2021/04/21 13:42:19;;;;;;;4.60;3.85;;;;;;;17.66;37.67;99547.06;4248228;28;31932;31
2021/04/21 13:45:32;;;;;;;7.00;4.47;;;;;;;19.32;35.62;99539.06;4154878;34;33584;-94
2021/04/21 13:49:05;;;;;;;7.82;5.18;;;;;;;19.22;35.54;99545.22;4185400;34;35097;-94
2021/04/21 13:51:44;;;;;;;5.62;4.28;;;;;;;21.12;33.19;99529.44;4228030;28;33753;-96
2021/04/21 13:55:04;;;;;;;4.80;3.90;;;;;;;21.94;31.70;99530.00;4274083;28;20122;-96
2021/04/21 13:58:10;;;;;;;6.32;4.18;;;;;;;21.31;32.83;99530.69;4332489;28;34485;31
2021/04/21 14:01:51;;;;;;;4.60;3.90;;;;;;;20.45;33.09;99523.31;4221604;28;20111;-93
2021/04/21 14:04:24;;;;;;;6.68;4.12;;;;;;;22.83;30.12;99507.13;4211099;34;32508;-93
2021/04/21 14:07:04;;;;;;;6.90;3.60;;;;;;;23.14;28.96;99507.19;4224037;33;34837;-92
2021/04/21 14:09:43;;;;;;;5.87;3.85;;;;;;;22.33;29.53;99504.84;4241195;33;34154;-94
2021/04/21 14:12:16;;;;;;;7.57;4.03;;;;;;;21.79;30.05;99506.00;4237261;33;34132;-92
2021/04/21 14:14:51;;;;;;;7.07;4.22;;;;;;;22.39;29.50;99509.31;4230731;33;34251;-87
2021/04/21 14:17:24;;;;;;;6.20;4.90;;;;;;;23.55;27.33;99507.16;4241335;33;33666;-86
2021/04/21 14:20:05;;;;;;;7.93;4.62;;;;;;;24.62;25.89;99502.31;4241018;33;33128;-96
2021/04/21 14:22:39;;;;;;;9.90;4.65;;;;;;;23.62;26.31;99518.69;4242404;33;33163;-91
2021/04/21 14:25:21;;;;;;;6.32;4.78;;;;;;;24.68;25.42;99501.16;4226962;33;34545;-84
2021/04/21 14:27:56;;;;;;;6.68;4.37;;;;;;;25.16;23.70;99497.72;4234965;33;32548;-85
2021/04/21 14:30:28;;;;;;;5.28;4.30;;;;;;;24.67;24.34;99494.81;4236882;33;33735;-85
2021/04/21 14:33:06;;;;;;;15.85;5.85;;;;;;;25.97;23.77;99488.88;4236421;33;33829;-92
2021/04/21 14:35:41;;;;;;;6.35;5.10;;;;;;;25.62;24.24;99496.50;4244026;33;33702;-95
2021/04/21 14:38:33;;;;;;;10.35;5.40;;;;;;;23.97;26.70;99492.13;4247888;33;32307;-90
2021/04/21 14:41:11;;;;;;;6.22;4.68;;;;;;;25.52;25.08;99484.41;4250089;33;33528;-94
2021/04/21 14:43:44;;;;;;;5.62;4.70;;;;;;;26.44;23.85;99487.16;4251530;33;34451;-93
2021/04/21 14:46:24;;;;;;;6.45;4.45;;;;;;;27.21;22.46;99485.94;4253343;33;33482;-95
2021/04/21 14:48:57;;;;;;;7.10;5.60;;;;;;;27.24;22.50;99501.97;4250307;33;32377;-92
2021/04/21 14:51:30;;;;;;;7.78;6.07;;;;;;;26.33;23.57;99482.87;4249161;33;33685;-84
2021/04/21 14:54:03;;;;;;;7.12;5.68;;;;;;;26.34;22.41;99490.91;4252658;33;34296;-86
2021/04/21 14:56:44;;;;;;;6.32;5.00;;;;;;;25.65;24.07;99485.66;4259104;33;33550;-96
2021/04/21 15:00:00;;;;;;;;;;;;;;;24.11;25.54;99493.16;4267927;33;32452;-95
2021/04/21 15:02:50;;;;;;;9.10;5.10;;;;;;;24.42;25.48;99479.19;4265662;33;33933;-85
2021/04/21 15:05:36;;;;;;;7.28;4.65;;;;;;;24.66;25.09;99487.62;4270096;33;36540;-94
2021/04/21 15:08:17;;;;;;;5.80;5.05;;;;;;;26.46;23.19;99476.59;4262724;33;34307;-96
2021/04/21 15:10:50;;;;;;;8.07;5.43;;;;;;;24.95;24.62;99477.75;4273002;33;33609;-94
2021/04/21 15:13:24;;;;;;;10.10;5.03;;;;;;;25.12;24.02;99489.19;4259847;33;33939;-91
2021/04/21 15:15:59;;;;;;;5.90;5.05;;;;;;;25.17;24.82;99480.84;4270404;33;33461;-93
2021/04/21 15:18:33;;;;;;;7.47;5.57;;;;;;;25.00;24.60;99474.91;4270847;33;34394;-93
2021/04/21 15:21:11;;;;;;;9.18;4.78;;;;;;;25.36;23.93;99477.41;4259159;33;33962;-96
2021/04/21 15:23:50;;;;;;;8.40;4.87;;;;;;;25.78;23.62;99478.59;4256647;33;33300;-92
2021/04/21 15:26:25;;;;;;;5.93;3.87;;;;;;;25.08;24.17;99482.59;4255160;33;33300;-94
2021/04/21 15:29:20;;;;;;;11.12;5.35;;;;;;;26.34;23.69;99484.53;4228990;33;32142;-96
2021/04/21 15:32:01;;;;;;;5.85;4.80;;;;;;;27.41;21.08;99489.50;4233526;33;33469;-96
2021/04/21 15:34:51;;;;;;;5.93;4.68;;;;;;;24.65;24.11;99490.69;4212980;33;33124;-95
2021/04/21 15:37:45;;;;;;;6.75;4.90;;;;;;;25.89;23.61;99488.41;4222998;33;34672;-96
2021/04/21 15:41:15;;;;;;;7.07;5.15;;;;;;;24.72;24.89;99482.91;4221594;33;33848;-96
2021/04/21 15:44:14;;;;;;;6.28;4.37;;;;;;;24.68;25.07;99492.88;4227828;33;32899;-87
2021/04/21 15:46:47;;;;;;;8.65;5.22;;;;;;;24.91;25.60;99491.31;4237469;33;33116;-89
2021/04/21 15:49:34;;;;;;;7.47;4.53;;;;;;;23.56;27.03;99509.62;4222867;33;34391;-91
2021/04/21 15:52:08;;;;;;;7.47;5.43;;;;;;;23.17;27.78;99495.59;4232977;33;33588;-89
2021/04/21 15:55:52;;;;;;;5.05;4.55;;;;;;;23.25;27.18;99508.84;4201181;33;34273;-88
2021/04/21 15:58:28;;;;;;;7.07;4.78;;;;;;;23.07;26.81;99504.69;4223931;33;33667;-88
2021/04/21 16:01:46;;;;;;;6.43;4.40;;;;;;;24.32;25.49;99493.06;4235810;33;32040;-96
2021/04/21 16:04:28;;;;;;;6.45;4.90;;;;;;;22.49;27.63;99493.91;4241904;33;33856;-94
2021/04/21 16:07:35;;;;;;;7.30;5.05;;;;;;;23.67;26.38;99493.03;4221452;33;33577;-96
2021/04/21 16:10:47;;;;;;;6.45;4.70;;;;;;;23.14;26.62;99493.41;4244918;28;20231;-89
2021/04/21 16:13:29;;;;;;;;;;;;;;;23.67;26.57;99498.53;4227065;33;33392;-96
2021/04/21 16:16:12;;;;;;;9.38;5.53;;;;;;;24.57;25.58;99499.56;4221252;33;34042;-96
2021/04/21 16:19:37;;;;;;;6.60;5.15;;;;;;;23.95;26.75;99503.47;4206276;33;33324;-94
2021/04/21 16:22:12;;;;;;;8.20;5.37;;;;;;;23.68;27.50;99505.72;4210946;33;33442;-95
2021/04/21 16:24:55;;;;;;;8.32;5.87;;;;;;;23.43;27.91;99505.50;4235874;33;33809;-96
2021/04/21 16:27:49;;;;;;;9.13;5.85;;;;;;;22.97;28.55;99502.75;4256112;33;34135;-93
2021/04/21 16:30:29;;;;;;;9.02;5.75;;;;;;;23.32;28.10;99501.09;4257459;33;33756;-93
2021/04/21 16:34:12;;;;;;;6.10;5.50;;;;;;;23.20;28.31;99497.81;4271999;33;33489;-96
2021/04/21 16:40:55;;;;;;;6.82;5.22;;;;;;;24.20;26.78;99504.44;4308251;27;35463;-96
2021/04/21 16:44:20;;;;;;;8.25;5.53;;;;;;;25.34;25.33;99497.03;4271700;33;20129;-96
2021/04/21 16:46:57;;;;;;;8.02;6.07;;;;;;;25.24;24.80;99497.13;4281459;33;34529;-96
2021/04/21 16:50:28;;;;;;;5.82;4.32;;;;;;;23.55;26.88;99507.97;4271265;33;35736;-95
2021/04/21 16:54:16;;;;;;;6.53;4.85;;;;;;;23.31;27.26;99504.13;4273032;33;34616;-96
2021/04/21 16:57:09;;;;;;;7.10;4.95;;;;;;;22.44;27.99;99502.12;4381176;28;32594;-96
2021/04/21 16:59:56;;;;;;;5.60;4.62;;;;;;;21.43;29.76;99513.19;4296625;33;32508;-96
2021/04/21 17:02:51;;;;;;;7.37;4.80;;;;;;;19.93;31.36;99508.97;4295139;33;33625;-95
2021/04/21 17:09:31;;;;;;;7.57;5.22;;;;;;;19.18;33.59;99515.84;4040080;28;33892;31
2021/04/21 17:17:03;;;;;;;5.65;4.55;;;;;;;18.38;35.48;99517.69;4477979;28;20135;-96
2021/04/21 17:37:59;;;;;;;6.72;3.33;;;;;;;16.69;44.02;99524.50;772915;27;20404;-94
2021/04/21 17:40:41;;;;;;;7.15;4.55;;;;;;;16.83;45.20;99529.75;4262483;33;32107;-93
2021/04/21 17:43:27;;;;;;;6.50;3.95;;;;;;;16.21;43.47;99530.81;4256307;33;34728;-94
2021/04/21 17:46:17;;;;;;;6.50;5.03;;;;;;;16.27;44.84;99529.88;4253785;33;34166;-95
2021/04/21 17:48:57;;;;;;;6.15;3.92;;;;;;;16.18;45.26;99540.31;4254019;33;33506;-94
2021/04/21 17:51:54;;;;;;;6.22;3.87;;;;;;;15.97;47.21;99541.63;4255941;33;34787;-96
2021/04/21 17:54:34;;;;;;;6.30;4.20;;;;;;;15.83;47.17;99545.53;4246122;33;33297;-96
2021/04/21 17:57:40;;;;;;;8.82;5.60;;;;;;;15.69;45.99;99548.38;4230959;33;32481;-96
2021/04/21 18:00:24;;;;;;;7.47;5.28;;;;;;;15.25;44.90;99550.25;4228613;33;32299;-95
2021/04/21 18:03:21;;;;;;;10.05;6.05;;;;;;;14.81;48.16;99562.94;4255958;33;34660;-96
2021/04/21 18:06:21;;;;;;;8.60;6.00;;;;;;;14.80;44.52;99564.00;4244346;33;33326;-96
2021/04/21 18:09:23;;;;;;;12.25;5.47;;;;;;;14.97;45.73;99567.00;4263657;33;32598;-96
2021/04/21 18:12:40;;;;;;;12.10;6.75;;;;;;;15.00;47.28;99570.12;4262269;33;32568;-96
2021/04/21 18:16:01;;;;;;;8.82;6.20;;;;;;;15.03;46.35;99568.03;4229845;33;33607;-96
2021/04/21 18:19:15;;;;;;;11.18;5.95;;;;;;;14.95;47.35;99569.13;4253412;33;20659;-94
2021/04/21 18:22:58;;;;;;;9.15;5.45;;;;;;;14.98;46.15;99566.81;4280244;33;33849;-96
2021/04/21 18:26:08;;;;;;;8.77;6.10;;;;;;;15.10;47.00;99574.25;1563956;28;20777;-95
2021/04/21 18:28:56;;;;;;;7.75;6.15;;;;;;;14.71;49.59;99571.59;4286637;33;33558;-94
2021/04/21 18:31:29;;;;;;;7.95;6.10;;;;;;;14.72;44.89;99577.88;4281486;33;34394;-94
2021/04/21 18:34:03;;;;;;;8.13;6.37;;;;;;;15.02;48.83;99578.09;4296390;33;33153;-94
2021/04/21 18:36:37;;;;;;;9.10;6.18;;;;;;;15.08;47.45;99582.63;4275312;33;32374;-94
2021/04/21 18:39:12;;;;;;;9.75;6.78;;;;;;;14.86;47.00;99584.88;4282657;33;33013;-95
2021/04/21 18:41:48;;;;;;;9.00;5.55;;;;;;;14.91;48.53;99586.94;4273663;33;35226;-94
2021/04/21 18:44:23;;;;;;;10.10;6.43;;;;;;;14.64;48.70;99577.06;4288042;33;34510;-94
2021/04/21 18:46:56;;;;;;;10.57;6.72;;;;;;;14.57;49.67;99587.13;4289386;33;33117;-94
2021/04/21 18:49:34;;;;;;;12.13;6.07;;;;;;;14.61;49.73;99593.84;4288853;33;33385;-94
2021/04/21 18:52:07;;;;;;;8.18;5.90;;;;;;;14.52;48.84;99589.66;4288514;33;34284;-94
2021/04/21 18:54:44;;;;;;;9.75;6.18;;;;;;;14.22;50.26;99595.66;4287094;33;32940;-95
2021/04/21 18:57:17;;;;;;;11.18;7.18;;;;;;;14.20;50.27;99595.00;4289431;33;33256;-95
2021/04/21 18:59:53;;;;;;;7.37;6.22;;;;;;;14.07;51.02;99592.34;4266448;33;33956;-94
2021/04/21 19:02:26;;;;;;;9.15;6.75;;;;;;;14.05;50.68;99594.44;4278362;33;33792;-95
2021/04/21 19:05:14;;;;;;;10.05;6.12;;;;;;;13.81;51.32;99604.94;4258443;33;34052;-94
2021/04/21 19:07:47;;;;;;;13.07;6.82;;;;;;;13.63;52.00;99599.34;4259954;33;34178;-95
2021/04/21 19:10:21;;;;;;;11.18;7.25;;;;;;;13.32;52.38;99600.78;4259487;33;34371;-94
2021/04/21 19:12:55;;;;;;;7.87;6.47;;;;;;;13.33;52.49;99603.28;4247111;33;34884;-94
2021/04/21 19:15:30;;;;;;;7.60;6.10;;;;;;;13.26;53.12;99597.03;4258922;33;33764;-94
2021/04/21 19:18:06;;;;;;;8.68;6.43;;;;;;;12.88;54.62;99603.88;4259208;33;35166;-93
2021/04/21 19:20:41;;;;;;;8.25;6.72;;;;;;;13.16;53.93;99608.31;4258793;33;33514;-94
2021/04/21 19:23:14;;;;;;;8.57;6.05;;;;;;;12.85;54.45;99607.00;4261415;33;33650;-93
2021/04/21 19:25:49;;;;;;;9.60;6.82;;;;;;;12.82;54.41;99610.13;4260806;33;34818;-93
2021/04/21 19:28:22;;;;;;;10.70;6.57;;;;;;;12.39;56.13;99609.59;4259971;33;33133;-94
2021/04/21 19:30:55;;;;;;;9.43;7.00;;;;;;;12.33;56.47;99616.62;4257891;33;34276;-93
2021/04/21 19:33:29;;;;;;;12.95;7.32;;;;;;;12.18;57.15;99614.94;4253866;33;33894;-93
2021/04/21 19:36:06;;;;;;;11.32;7.22;;;;;;;12.18;56.91;99614.06;4258498;33;34159;-92
2021/04/21 19:38:39;;;;;;;9.82;6.78;;;;;;;12.36;56.41;99605.41;4259401;33;33836;-93
2021/04/21 19:41:08;;;;;;;10.93;6.37;;;;;;;12.22;56.91;99612.63;4258953;33;33314;-93
2021/04/21 19:43:44;;;;;;;10.20;6.55;;;;;;;11.95;57.58;99614.38;4258921;33;34651;-93
2021/04/21 19:46:17;;;;;;;9.95;6.65;;;;;;;12.22;56.80;99611.81;4260253;33;33927;-91
2021/04/21 19:48:50;;;;;;;9.43;6.95;;;;;;;11.72;57.97;99620.87;4259827;33;33742;-93
2021/04/21 19:51:23;;;;;;;10.40;6.45;;;;;;;11.48;58.73;99623.00;4259141;33;34347;-94
2021/04/21 19:54:00;;;;;;;9.02;6.40;;;;;;;11.20;59.06;99620.25;4248311;33;34631;-95
2021/04/21 19:56:43;;;;;;;8.18;6.22;;;;;;;11.32;59.00;99620.56;4262173;33;33596;-95
2021/04/21 19:59:18;;;;;;;12.55;6.70;;;;;;;11.13;59.36;99624.75;4268258;33;33456;-95
2021/04/21 20:02:00;;;;;;;13.48;6.62;;;;;;;10.75;60.46;99625.00;4258919;33;33783;-94
2021/04/21 20:04:34;;;;;;;9.50;6.87;;;;;;;10.87;60.49;99630.75;4253753;33;33958;-95
2021/04/21 20:07:10;;;;;;;11.52;6.95;;;;;;;11.04;59.76;99628.63;4259884;33;34491;-95
2021/04/21 20:09:46;;;;;;;9.38;6.25;;;;;;;10.88;59.99;99619.75;4259760;33;33889;-96
2021/04/21 20:12:21;;;;;;;9.93;6.20;;;;;;;10.67;60.66;99628.66;4234003;33;34490;-96
2021/04/21 20:14:56;;;;;;;10.70;6.40;;;;;;;10.77;60.48;99626.47;4267696;33;33064;-96
2021/04/21 20:17:36;;;;;;;7.55;5.05;;;;;;;10.90;59.80;99631.19;4247119;33;34566;-96
2021/04/21 20:20:16;;;;;;;8.52;6.43;;;;;;;10.83;60.07;99630.28;4263256;33;34557;-96
2021/04/21 20:22:49;;;;;;;8.60;6.18;;;;;;;10.59;60.35;99626.91;4273992;33;35106;-96
2021/04/21 20:25:22;;;;;;;7.43;5.82;;;;;;;10.68;59.68;99622.22;4266746;33;33939;-96
2021/04/21 20:28:04;;;;;;;8.48;6.07;;;;;;;10.35;60.75;99628.06;4261802;33;37632;-94
2021/04/21 20:30:37;;;;;;;8.70;6.40;;;;;;;10.33;60.94;99630.13;4258413;33;34068;-94
2021/04/21 20:33:16;;;;;;;9.05;6.15;;;;;;;10.32;61.19;99623.03;4263010;33;33104;-95
2021/04/21 20:35:49;;;;;;;9.63;7.10;;;;;;;10.07;61.99;99631.44;4260303;33;34676;-96
2021/04/21 20:38:22;;;;;;;10.05;6.32;;;;;;;10.13;61.62;99626.31;4258432;33;34394;-96
2021/04/21 20:40:55;;;;;;;11.23;6.57;;;;;;;9.81;62.58;99631.06;4261705;33;33132;-95
2021/04/21 20:43:29;;;;;;;8.32;6.10;;;;;;;9.87;62.60;99639.25;4259646;33;35152;-96
2021/04/21 20:46:04;;;;;;;8.70;5.93;;;;;;;9.40;63.25;99634.16;4250812;33;34427;-93
2021/04/21 20:48:37;;;;;;;9.68;6.95;;;;;;;9.28;63.88;99642.69;4271691;33;34283;-94
2021/04/21 20:51:09;;;;;;;11.75;7.55;;;;;;;9.64;62.86;99652.81;4263008;33;33285;-93
2021/04/21 20:53:43;;;;;;;11.35;6.35;;;;;;;9.49;63.71;99644.69;4260629;33;35031;-84
2021/04/21 20:56:18;;;;;;;9.50;7.40;;;;;;;8.83;66.58;99641.66;4261831;33;33732;-93
2021/04/21 20:58:51;;;;;;;10.32;6.82;;;;;;;9.00;66.06;99640.53;4259441;33;34570;-93
2021/04/21 21:01:24;;;;;;;7.53;6.00;;;;;;;9.61;63.63;99646.94;4268863;33;32994;-92
2021/04/21 21:03:56;;;;;;;8.75;5.78;;;;;;;9.65;62.98;99634.75;4256334;33;38009;-93
2021/04/21 21:06:31;;;;;;;15.93;6.72;;;;;;;9.29;63.79;99638.94;4262833;33;34395;-95
2021/04/21 21:09:05;;;;;;;10.00;6.57;;;;;;;9.60;63.14;99629.91;4242896;33;34135;-95
2021/04/21 21:11:38;;;;;;;10.15;6.00;;;;;;;9.34;63.89;99630.31;4260463;33;35412;-96
2021/04/21 21:14:10;;;;;;;9.93;6.70;;;;;;;9.60;63.16;99632.63;4269085;33;34529;-84
2021/04/21 21:16:43;;;;;;;10.00;7.55;;;;;;;9.57;62.89;99630.28;4236113;33;35031;-84
2021/04/21 21:19:16;;;;;;;10.50;8.02;;;;;;;9.64;62.47;99633.94;4256215;33;32696;-84
2021/04/21 21:21:49;;;;;;;10.10;8.13;;;;;;;9.41;63.20;99636.66;4247226;33;32973;-83
2021/04/21 21:24:21;;;;;;;10.77;8.55;;;;;;;9.07;64.28;99634.41;4241508;33;36367;-83
2021/04/21 21:26:54;;;;;;;12.85;9.13;;;;;;;9.13;63.80;99637.25;4271679;33;33681;-84
2021/04/21 21:29:36;;;;;;;15.85;9.73;;;;;;;9.26;62.85;99639.31;4259155;33;34138;-84
2021/04/21 21:32:10;;;;;;;12.95;9.80;;;;;;;8.87;64.34;99634.91;4261825;33;34718;-84
2021/04/21 21:34:42;;;;;;;12.90;10.00;;;;;;;8.92;64.36;99645.13;4260001;33;33884;-83
2021/04/21 21:37:15;;;;;;;11.40;8.88;;;;;;;8.98;64.17;99634.50;4246488;33;34089;-85
2021/04/21 21:39:48;;;;;;;12.73;9.23;;;;;;;8.67;65.45;99634.53;4254530;33;34447;-83
2021/04/21 21:42:20;;;;;;;14.02;8.98;;;;;;;8.57;65.92;99639.31;4255877;33;34063;-83
2021/04/21 21:44:53;;;;;;;16.05;10.30;;;;;;;8.69;65.93;99640.56;4261306;33;33661;-83
2021/04/21 21:47:27;;;;;;;14.25;9.93;;;;;;;8.76;65.66;99635.31;4260543;33;35048;-83
2021/04/21 21:50:07;;;;;;;14.57;10.65;;;;;;;8.83;65.05;99625.47;4248796;33;33361;-84
2021/04/21 21:52:41;;;;;;;15.07;11.05;;;;;;;8.91;65.01;99638.09;4259838;33;34806;-84
2021/04/21 21:55:14;;;;;;;16.73;10.88;;;;;;;9.03;64.77;99633.94;4260774;33;33787;-83
2021/04/21 21:57:47;;;;;;;15.77;10.27;;;;;;;8.93;64.65;99641.44;4270458;33;34555;-84
2021/04/21 22:00:20;;;;;;;11.90;9.52;;;;;;;9.25;63.51;99637.66;4259170;33;33576;-84
2021/04/21 22:02:53;;;;;;;14.20;9.43;;;;;;;8.92;64.29;99635.22;4261099;33;33151;-84
2021/04/21 22:05:25;;;;;;;14.10;10.70;;;;;;;9.11;64.09;99635.75;4261573;33;33731;-84
2021/04/21 22:07:58;;;;;;;13.60;10.00;;;;;;;9.21;63.32;99635.47;4261532;33;34330;-84
2021/04/21 22:10:31;;;;;;;21.55;10.65;;;;;;;9.09;63.39;99638.62;4283937;33;34109;-84
2021/04/21 22:13:04;;;;;;;14.07;10.85;;;;;;;9.08;63.66;99636.09;4261637;33;33205;-84
2021/04/21 22:15:39;;;;;;;18.75;13.07;;;;;;;9.08;63.70;99638.81;4270345;33;35207;-84
2021/04/21 22:18:12;;;;;;;17.00;12.43;;;;;;;8.88;64.43;99636.59;4272697;33;33645;-85
2021/04/21 22:20:44;;;;;;;21.10;12.65;;;;;;;8.48;65.94;99636.63;4261737;33;34002;-85
2021/04/21 22:23:17;;;;;;;15.00;11.05;;;;;;;8.92;64.44;99631.66;4261602;33;33118;-85
2021/04/21 22:25:49;;;;;;;14.40;10.70;;;;;;;9.19;63.53;99638.34;4258992;33;34721;-84
2021/04/21 22:28:23;;;;;;;14.55;10.38;;;;;;;9.21;63.31;99647.12;4272866;33;33926;-84
2021/04/21 22:30:55;;;;;;;15.85;10.90;;;;;;;8.91;64.40;99641.63;4261396;33;33609;-96
2021/04/21 22:33:29;;;;;;;13.82;10.15;;;;;;;8.57;65.93;99637.44;4256531;33;34353;-96
2021/04/21 22:36:03;;;;;;;15.18;11.55;;;;;;;9.04;64.63;99645.56;4261446;33;34554;-96
2021/04/21 22:38:39;;;;;;;14.70;11.32;;;;;;;8.95;64.54;99642.94;4252438;33;34107;-96
2021/04/21 22:41:14;;;;;;;13.40;10.65;;;;;;;8.91;65.03;99646.19;4261511;33;32775;-96
2021/04/21 22:43:48;;;;;;;16.15;11.63;;;;;;;8.54;66.64;99640.47;4269960;33;32253;-85
2021/04/21 22:46:21;;;;;;;15.48;11.07;;;;;;;8.58;67.06;99646.38;4261073;33;33270;-89
2021/04/21 22:48:54;;;;;;;15.60;10.65;;;;;;;8.66;66.98;99640.94;4348325;27;32640;-89
2021/04/21 22:51:26;;;;;;;15.65;11.40;;;;;;;8.64;67.08;99651.88;4282181;33;34517;-94
2021/04/21 22:53:59;;;;;;;17.23;11.43;;;;;;;8.66;67.65;99644.44;4293584;33;33066;-83
2021/04/21 22:56:31;;;;;;;15.32;11.30;;;;;;;8.89;67.24;99650.87;4297898;33;33991;-84
2021/04/21 22:59:05;;;;;;;15.38;10.80;;;;;;;9.23;65.87;99645.06;4283301;33;34717;-83
2021/04/21 23:01:37;;;;;;;12.20;9.82;;;;;;;9.15;66.61;99659.47;4274209;33;35021;-95
2021/04/21 23:04:12;;;;;;;14.25;10.98;;;;;;;9.04;66.64;99650.97;4296652;33;33165;-83
2021/04/21 23:06:44;;;;;;;15.55;10.35;;;;;;;8.81;67.64;99657.19;4295048;33;34240;-84
2021/04/21 23:09:16;;;;;;;17.05;10.65;;;;;;;9.26;66.30;99660.06;4283699;33;33409;-94
2021/04/21 23:11:48;;;;;;;13.15;9.63;;;;;;;9.31;65.67;99649.56;4273092;33;35770;-84
2021/04/21 23:14:21;;;;;;;14.52;10.45;;;;;;;9.11;66.43;99644.66;4283842;33;34838;-84
2021/04/21 23:16:53;;;;;;;13.57;10.40;;;;;;;9.12;66.45;99640.94;4275480;33;34245;-84
2021/04/21 23:19:26;;;;;;;14.10;9.70;;;;;;;9.44;65.73;99648.97;4264973;33;36588;-94
2021/04/21 23:21:58;;;;;;;14.70;10.38;;;;;;;9.20;65.73;99645.44;4284019;33;33636;-94